sensor_id;sensor_type;location;lat;lon;timestamp;pressure;altitude;pressure_sealevel;temperature;humidity
29879;BME280;16752;53.364;-1.488;2022-10-16T00:01:34;98767.06;;;19.19;38.37
29879;BME280;16752;53.364;-1.488;2022-10-16T00:04:01;98770.22;;;19.02;38.40
29879;BME280;16752;53.364;-1.488;2022-10-16T00:06:29;98764.03;;;18.67;39.39
29879;BME280;16752;53.364;-1.488;2022-10-16T00:09:00;98764.09;;;18.52;39.77
29879;BME280;16752;53.364;-1.488;2022-10-16T00:11:27;98766.25;;;19.19;38.62
29879;BME280;16752;53.364;-1.488;2022-10-16T00:13:55;98760.22;;;19.04;39.13
29879;BME280;16752;53.364;-1.488;2022-10-16T00:16:30;98753.66;;;19.00;39.26
29879;BME280;16752;53.364;-1.488;2022-10-16T00:18:56;98749.41;;;18.77;40.19
29879;BME280;16752;53.364;-1.488;2022-10-16T00:21:25;98756.09;;;18.67;40.21
29879;BME280;16752;53.364;-1.488;2022-10-16T00:24:36;98742.09;;;18.37;40.88
29879;BME280;16752;53.364;-1.488;2022-10-16T00:27:02;98745.53;;;18.73;40.54
29879;BME280;16752;53.364;-1.488;2022-10-16T00:29:33;98743.91;;;18.57;41.09
29879;BME280;16752;53.364;-1.488;2022-10-16T00:31:58;98757.09;;;18.93;40.11
29879;BME280;16752;53.364;-1.488;2022-10-16T00:34:23;98759.97;;;18.99;40.06
29879;BME280;16752;53.364;-1.488;2022-10-16T00:36:49;98755.75;;;18.33;41.24
29879;BME280;16752;53.364;-1.488;2022-10-16T00:39:15;98760.09;;;18.62;40.45
29879;BME280;16752;53.364;-1.488;2022-10-16T00:41:40;98756.53;;;19.05;39.81
29879;BME280;16752;53.364;-1.488;2022-10-16T00:46:53;98765.97;;;18.37;41.34
29879;BME280;16752;53.364;-1.488;2022-10-16T00:49:22;98764.50;;;19.05;40.20
29879;BME280;16752;53.364;-1.488;2022-10-16T00:51:57;98772.06;;;19.08;40.10
29879;BME280;16752;53.364;-1.488;2022-10-16T00:54:28;98763.75;;;18.83;40.68
29879;BME280;16752;53.364;-1.488;2022-10-16T00:56:55;98766.78;;;18.80;40.80
29879;BME280;16752;53.364;-1.488;2022-10-16T00:59:26;98760.72;;;19.14;40.14
29879;BME280;16752;53.364;-1.488;2022-10-16T01:01:53;98779.19;;;19.01;40.12
29879;BME280;16752;53.364;-1.488;2022-10-16T01:04:21;98774.47;;;18.68;41.14
29879;BME280;16752;53.364;-1.488;2022-10-16T01:17:08;98803.72;;;18.39;41.58
29879;BME280;16752;53.364;-1.488;2022-10-16T01:28:01;98817.59;;;18.62;40.55
29879;BME280;16752;53.364;-1.488;2022-10-16T01:30:50;98811.03;;;18.37;41.09
29879;BME280;16752;53.364;-1.488;2022-10-16T01:33:28;98809.78;;;18.97;39.94
29879;BME280;16752;53.364;-1.488;2022-10-16T01:36:07;98808.28;;;18.23;40.96
29879;BME280;16752;53.364;-1.488;2022-10-16T01:38:36;98817.91;;;18.10;41.60
29879;BME280;16752;53.364;-1.488;2022-10-16T01:41:19;98833.38;;;18.27;40.78
29879;BME280;16752;53.364;-1.488;2022-10-16T01:43:48;98828.09;;;18.49;40.31
29879;BME280;16752;53.364;-1.488;2022-10-16T01:46:15;98834.44;;;18.90;39.85
29879;BME280;16752;53.364;-1.488;2022-10-16T01:48:42;98827.28;;;18.27;40.95
29879;BME280;16752;53.364;-1.488;2022-10-16T01:51:11;98835.03;;;19.14;40.11
29879;BME280;16752;53.364;-1.488;2022-10-16T01:53:38;98837.94;;;18.33;42.01
29879;BME280;16752;53.364;-1.488;2022-10-16T01:56:11;98850.22;;;18.77;41.31
29879;BME280;16752;53.364;-1.488;2022-10-16T01:58:40;98850.00;;;18.36;41.90
29879;BME280;16752;53.364;-1.488;2022-10-16T02:01:11;98851.94;;;18.27;42.29
29879;BME280;16752;53.364;-1.488;2022-10-16T02:03:40;98855.94;;;18.59;41.67
29879;BME280;16752;53.364;-1.488;2022-10-16T02:06:08;98864.31;;;18.42;41.78
29879;BME280;16752;53.364;-1.488;2022-10-16T02:08:33;98856.94;;;18.73;41.59
29879;BME280;16752;53.364;-1.488;2022-10-16T02:10:59;98864.75;;;18.24;42.04
29879;BME280;16752;53.364;-1.488;2022-10-16T02:13:30;98872.09;;;18.43;41.47
29879;BME280;16752;53.364;-1.488;2022-10-16T02:15:57;98880.63;;;18.60;41.19
29879;BME280;16752;53.364;-1.488;2022-10-16T02:18:23;98879.22;;;18.79;40.69
29879;BME280;16752;53.364;-1.488;2022-10-16T02:21:11;98891.06;;;18.61;41.17
29879;BME280;16752;53.364;-1.488;2022-10-16T02:26:08;98898.19;;;18.76;40.55
29879;BME280;16752;53.364;-1.488;2022-10-16T02:28:39;98896.47;;;18.17;41.66
29879;BME280;16752;53.364;-1.488;2022-10-16T02:31:07;98909.81;;;18.60;40.77
29879;BME280;16752;53.364;-1.488;2022-10-16T02:33:35;98916.88;;;18.53;40.99
29879;BME280;16752;53.364;-1.488;2022-10-16T02:36:21;98915.63;;;18.34;41.04
29879;BME280;16752;53.364;-1.488;2022-10-16T02:38:58;98926.16;;;18.78;40.36
29879;BME280;16752;53.364;-1.488;2022-10-16T02:44:09;98929.94;;;18.69;40.26
29879;BME280;16752;53.364;-1.488;2022-10-16T02:46:54;98946.13;;;18.96;39.82
29879;BME280;16752;53.364;-1.488;2022-10-16T02:49:20;98947.38;;;18.78;39.93
29879;BME280;16752;53.364;-1.488;2022-10-16T02:51:48;98946.75;;;18.25;40.57
29879;BME280;16752;53.364;-1.488;2022-10-16T02:54:13;98949.34;;;18.55;40.12
29879;BME280;16752;53.364;-1.488;2022-10-16T02:56:39;98953.56;;;18.85;39.36
29879;BME280;16752;53.364;-1.488;2022-10-16T02:59:05;98954.22;;;18.66;40.01
29879;BME280;16752;53.364;-1.488;2022-10-16T03:01:30;98915.41;;;18.86;39.51
29879;BME280;16752;53.364;-1.488;2022-10-16T03:04:13;98953.75;;;18.18;40.64
29879;BME280;16752;53.364;-1.488;2022-10-16T03:06:40;98963.44;;;18.70;40.17
29879;BME280;16752;53.364;-1.488;2022-10-16T03:09:05;98969.91;;;18.53;40.58
29879;BME280;16752;53.364;-1.488;2022-10-16T03:11:37;98981.00;;;18.71;40.00
29879;BME280;16752;53.364;-1.488;2022-10-16T03:14:02;98982.22;;;18.90;40.00
29879;BME280;16752;53.364;-1.488;2022-10-16T03:16:33;99001.09;;;18.51;40.56
29879;BME280;16752;53.364;-1.488;2022-10-16T03:18:59;98996.06;;;18.56;40.10
29879;BME280;16752;53.364;-1.488;2022-10-16T03:21:26;98996.91;;;18.42;40.77
29879;BME280;16752;53.364;-1.488;2022-10-16T03:23:52;99000.34;;;19.08;39.37
29879;BME280;16752;53.364;-1.488;2022-10-16T03:26:27;99012.06;;;19.13;39.44
29879;BME280;16752;53.364;-1.488;2022-10-16T03:29:00;99010.44;;;19.12;39.47
29879;BME280;16752;53.364;-1.488;2022-10-16T03:31:32;99018.09;;;19.07;39.20
29879;BME280;16752;53.364;-1.488;2022-10-16T03:34:04;99021.78;;;18.55;40.37
29879;BME280;16752;53.364;-1.488;2022-10-16T03:36:41;99024.41;;;18.55;40.36
29879;BME280;16752;53.364;-1.488;2022-10-16T03:39:10;99044.00;;;18.40;40.69
29879;BME280;16752;53.364;-1.488;2022-10-16T03:41:38;99048.31;;;18.70;40.13
29879;BME280;16752;53.364;-1.488;2022-10-16T03:44:04;99056.78;;;18.95;39.49
29879;BME280;16752;53.364;-1.488;2022-10-16T03:46:31;99064.00;;;19.01;38.95
29879;BME280;16752;53.364;-1.488;2022-10-16T03:48:59;99069.69;;;18.54;39.75
29879;BME280;16752;53.364;-1.488;2022-10-16T03:51:30;99074.78;;;19.00;38.84
29879;BME280;16752;53.364;-1.488;2022-10-16T03:53:56;99084.13;;;17.84;40.61
29879;BME280;16752;53.364;-1.488;2022-10-16T03:56:22;99098.91;;;18.16;40.45
29879;BME280;16752;53.364;-1.488;2022-10-16T03:58:51;99104.97;;;18.40;39.74
29879;BME280;16752;53.364;-1.488;2022-10-16T04:01:16;99123.09;;;18.51;39.64
29879;BME280;16752;53.364;-1.488;2022-10-16T04:03:42;99122.22;;;18.06;40.22
29879;BME280;16752;53.364;-1.488;2022-10-16T04:06:14;99130.06;;;18.52;39.66
29879;BME280;16752;53.364;-1.488;2022-10-16T04:08:45;99129.97;;;18.60;39.43
29879;BME280;16752;53.364;-1.488;2022-10-16T04:11:49;99137.91;;;18.45;39.90
29879;BME280;16752;53.364;-1.488;2022-10-16T04:14:14;99155.41;;;17.94;40.69
29879;BME280;16752;53.364;-1.488;2022-10-16T04:16:39;99159.72;;;17.95;41.06
29879;BME280;16752;53.364;-1.488;2022-10-16T04:19:09;99154.19;;;18.57;39.62
29879;BME280;16752;53.364;-1.488;2022-10-16T04:24:36;99175.56;;;18.41;39.97
29879;BME280;16752;53.364;-1.488;2022-10-16T04:27:02;99180.03;;;18.02;40.79
29879;BME280;16752;53.364;-1.488;2022-10-16T04:29:33;99196.75;;;18.26;40.28
29879;BME280;16752;53.364;-1.488;2022-10-16T04:32:02;99203.28;;;18.15;40.70
29879;BME280;16752;53.364;-1.488;2022-10-16T04:34:30;99206.53;;;18.25;40.32
29879;BME280;16752;53.364;-1.488;2022-10-16T04:40:10;99220.81;;;18.39;39.93
29879;BME280;16752;53.364;-1.488;2022-10-16T04:42:40;99231.88;;;18.43;39.94
29879;BME280;16752;53.364;-1.488;2022-10-16T04:45:06;99238.50;;;18.47;39.91
29879;BME280;16752;53.364;-1.488;2022-10-16T04:47:38;99243.50;;;18.42;39.81
29879;BME280;16752;53.364;-1.488;2022-10-16T04:50:07;99247.47;;;18.46;39.69
29879;BME280;16752;53.364;-1.488;2022-10-16T04:52:56;99255.25;;;18.47;39.79
29879;BME280;16752;53.364;-1.488;2022-10-16T04:55:47;99250.63;;;18.41;39.93
29879;BME280;16752;53.364;-1.488;2022-10-16T04:58:22;99251.34;;;18.12;40.50
29879;BME280;16752;53.364;-1.488;2022-10-16T05:00:48;99264.44;;;18.14;40.56
29879;BME280;16752;53.364;-1.488;2022-10-16T05:03:24;99257.47;;;18.13;40.52
29879;BME280;16752;53.364;-1.488;2022-10-16T05:09:02;99269.31;;;18.02;40.43
29879;BME280;16752;53.364;-1.488;2022-10-16T05:11:46;99276.56;;;18.08;40.31
29879;BME280;16752;53.364;-1.488;2022-10-16T05:14:11;99276.56;;;17.77;40.75
29879;BME280;16752;53.364;-1.488;2022-10-16T05:16:45;99280.94;;;17.93;40.66
29879;BME280;16752;53.364;-1.488;2022-10-16T05:19:24;99283.66;;;17.85;40.64
29879;BME280;16752;53.364;-1.488;2022-10-16T05:22:28;99297.63;;;17.70;40.71
29879;BME280;16752;53.364;-1.488;2022-10-16T05:25:02;99306.59;;;17.53;41.13
29879;BME280;16752;53.364;-1.488;2022-10-16T05:28:09;99318.63;;;17.72;40.38
29879;BME280;16752;53.364;-1.488;2022-10-16T05:30:46;99321.50;;;17.54;40.74
29879;BME280;16752;53.364;-1.488;2022-10-16T05:33:20;99320.47;;;17.63;40.46
29879;BME280;16752;53.364;-1.488;2022-10-16T05:36:17;99323.25;;;17.23;40.99
29879;BME280;16752;53.364;-1.488;2022-10-16T05:38:51;99329.06;;;17.65;40.24
29879;BME280;16752;53.364;-1.488;2022-10-16T05:41:19;99338.97;;;17.08;41.23
29879;BME280;16752;53.364;-1.488;2022-10-16T05:43:47;99342.41;;;17.41;40.61
29879;BME280;16752;53.364;-1.488;2022-10-16T05:46:15;99353.97;;;16.34;42.59
29879;BME280;16752;53.364;-1.488;2022-10-16T05:48:43;99347.41;;;16.87;41.33
29879;BME280;16752;53.364;-1.488;2022-10-16T05:51:10;99353.34;;;17.22;40.70
29879;BME280;16752;53.364;-1.488;2022-10-16T05:53:37;99351.84;;;16.54;41.59
29879;BME280;16752;53.364;-1.488;2022-10-16T05:56:03;99357.13;;;17.27;40.41
29879;BME280;16752;53.364;-1.488;2022-10-16T05:58:35;99357.97;;;16.63;41.12
29879;BME280;16752;53.364;-1.488;2022-10-16T06:01:05;99363.63;;;17.17;40.04
29879;BME280;16752;53.364;-1.488;2022-10-16T06:03:32;99376.97;;;17.39;39.70
29879;BME280;16752;53.364;-1.488;2022-10-16T06:05:58;99379.19;;;16.95;40.19
29879;BME280;16752;53.364;-1.488;2022-10-16T06:08:24;99387.22;;;17.42;39.42
29879;BME280;16752;53.364;-1.488;2022-10-16T06:11:07;99383.13;;;16.91;40.30
29879;BME280;16752;53.364;-1.488;2022-10-16T06:13:42;99381.50;;;16.15;41.81
29879;BME280;16752;53.364;-1.488;2022-10-16T06:16:09;99377.53;;;16.94;40.19
29879;BME280;16752;53.364;-1.488;2022-10-16T06:18:50;99386.41;;;16.69;40.40
29879;BME280;16752;53.364;-1.488;2022-10-16T06:24:26;99385.63;;;16.76;40.13
29879;BME280;16752;53.364;-1.488;2022-10-16T06:27:13;99391.06;;;17.07;39.40
29879;BME280;16752;53.364;-1.488;2022-10-16T06:29:45;99394.38;;;15.76;41.88
29879;BME280;16752;53.364;-1.488;2022-10-16T06:32:11;99410.13;;;16.36;40.76
29879;BME280;16752;53.364;-1.488;2022-10-16T06:34:40;99400.00;;;16.98;39.71
29879;BME280;16752;53.364;-1.488;2022-10-16T06:37:06;99413.13;;;16.41;40.55
29879;BME280;16752;53.364;-1.488;2022-10-16T06:39:41;99417.72;;;16.31;41.08
29879;BME280;16752;53.364;-1.488;2022-10-16T06:42:10;99426.13;;;16.85;39.89
29879;BME280;16752;53.364;-1.488;2022-10-16T06:44:35;99427.78;;;17.02;39.54
29879;BME280;16752;53.364;-1.488;2022-10-16T06:47:01;99437.69;;;16.76;40.10
29879;BME280;16752;53.364;-1.488;2022-10-16T06:49:34;99438.03;;;16.97;39.60
29879;BME280;16752;53.364;-1.488;2022-10-16T06:52:07;99446.53;;;16.50;40.46
29879;BME280;16752;53.364;-1.488;2022-10-16T06:54:36;99458.69;;;16.35;40.84
29879;BME280;16752;53.364;-1.488;2022-10-16T07:04:00;99467.28;;;16.03;40.87
29879;BME280;16752;53.364;-1.488;2022-10-16T07:06:30;99467.63;;;16.34;40.80
29879;BME280;16752;53.364;-1.488;2022-10-16T07:09:03;99476.44;;;16.59;40.27
29879;BME280;16752;53.364;-1.488;2022-10-16T07:11:34;99483.72;;;16.49;40.24
29879;BME280;16752;53.364;-1.488;2022-10-16T07:14:00;99486.19;;;16.50;40.58
29879;BME280;16752;53.364;-1.488;2022-10-16T07:16:28;99492.56;;;16.74;40.19
29879;BME280;16752;53.364;-1.488;2022-10-16T07:18:54;99497.28;;;16.20;41.09
29879;BME280;16752;53.364;-1.488;2022-10-16T07:21:24;99495.72;;;16.43;40.74
29879;BME280;16752;53.364;-1.488;2022-10-16T07:23:58;99499.59;;;16.65;40.35
29879;BME280;16752;53.364;-1.488;2022-10-16T07:26:28;99514.59;;;16.48;40.75
29879;BME280;16752;53.364;-1.488;2022-10-16T07:28:55;99505.34;;;16.95;39.94
29879;BME280;16752;53.364;-1.488;2022-10-16T07:31:21;99507.16;;;16.94;40.17
29879;BME280;16752;53.364;-1.488;2022-10-16T07:33:48;99513.06;;;16.80;39.99
29879;BME280;16752;53.364;-1.488;2022-10-16T07:36:36;99514.44;;;17.08;39.60
29879;BME280;16752;53.364;-1.488;2022-10-16T07:39:29;99524.03;;;16.93;39.90
29879;BME280;16752;53.364;-1.488;2022-10-16T07:42:01;99535.13;;;16.97;39.66
29879;BME280;16752;53.364;-1.488;2022-10-16T07:44:37;99530.03;;;17.28;39.39
29879;BME280;16752;53.364;-1.488;2022-10-16T07:47:30;99546.91;;;16.34;41.32
29879;BME280;16752;53.364;-1.488;2022-10-16T07:50:07;99535.13;;;17.05;40.04
29879;BME280;16752;53.364;-1.488;2022-10-16T07:52:34;99545.34;;;16.49;41.15
29879;BME280;16752;53.364;-1.488;2022-10-16T07:55:00;99561.69;;;16.87;40.41
29879;BME280;16752;53.364;-1.488;2022-10-16T07:57:25;99565.00;;;16.89;40.46
29879;BME280;16752;53.364;-1.488;2022-10-16T07:59:54;99560.13;;;17.35;39.51
29879;BME280;16752;53.364;-1.488;2022-10-16T08:02:19;99571.88;;;17.32;39.82
29879;BME280;16752;53.364;-1.488;2022-10-16T08:04:46;99577.03;;;17.42;39.51
29879;BME280;16752;53.364;-1.488;2022-10-16T08:07:11;99578.66;;;17.19;39.53
29879;BME280;16752;53.364;-1.488;2022-10-16T08:09:37;99581.34;;;17.43;39.43
29879;BME280;16752;53.364;-1.488;2022-10-16T08:12:03;99588.50;;;17.75;39.12
29879;BME280;16752;53.364;-1.488;2022-10-16T08:14:30;99586.78;;;18.31;37.84
29879;BME280;16752;53.364;-1.488;2022-10-16T08:16:56;99597.19;;;18.49;37.67
29879;BME280;16752;53.364;-1.488;2022-10-16T08:19:21;99609.28;;;18.68;37.41
29879;BME280;16752;53.364;-1.488;2022-10-16T08:21:47;99622.63;;;18.82;37.15
29879;BME280;16752;53.364;-1.488;2022-10-16T08:24:13;99623.22;;;19.01;36.90
29879;BME280;16752;53.364;-1.488;2022-10-16T08:26:38;99626.28;;;18.89;36.97
29879;BME280;16752;53.364;-1.488;2022-10-16T08:29:04;99625.13;;;18.84;36.86
29879;BME280;16752;53.364;-1.488;2022-10-16T08:31:32;99633.53;;;18.96;37.17
29879;BME280;16752;53.364;-1.488;2022-10-16T08:34:01;99634.72;;;19.24;35.92
29879;BME280;16752;53.364;-1.488;2022-10-16T08:36:29;99636.81;;;19.06;36.57
29879;BME280;16752;53.364;-1.488;2022-10-16T08:39:00;99636.44;;;19.17;36.34
29879;BME280;16752;53.364;-1.488;2022-10-16T08:46:43;99672.91;;;19.85;35.10
29879;BME280;16752;53.364;-1.488;2022-10-16T08:49:13;99677.00;;;19.96;34.96
29879;BME280;16752;53.364;-1.488;2022-10-16T08:51:39;99681.69;;;20.08;34.03
29879;BME280;16752;53.364;-1.488;2022-10-16T08:54:10;99691.72;;;20.59;33.93
29879;BME280;16752;53.364;-1.488;2022-10-16T08:56:42;99695.63;;;20.86;33.16
29879;BME280;16752;53.364;-1.488;2022-10-16T08:59:29;99701.16;;;21.28;32.64
29879;BME280;16752;53.364;-1.488;2022-10-16T09:08:22;99718.34;;;21.98;32.48
29879;BME280;16752;53.364;-1.488;2022-10-16T09:11:00;99734.56;;;22.18;31.82
29879;BME280;16752;53.364;-1.488;2022-10-16T09:13:43;99733.91;;;22.37;31.60
29879;BME280;16752;53.364;-1.488;2022-10-16T09:16:19;99739.13;;;22.45;31.12
29879;BME280;16752;53.364;-1.488;2022-10-16T09:18:54;99727.84;;;22.50;30.98
29879;BME280;16752;53.364;-1.488;2022-10-16T09:23:54;99740.63;;;22.33;33.65
29879;BME280;16752;53.364;-1.488;2022-10-16T09:26:49;99753.19;;;22.82;31.84
29879;BME280;16752;53.364;-1.488;2022-10-16T09:29:21;99748.31;;;22.92;31.28
29879;BME280;16752;53.364;-1.488;2022-10-16T09:32:21;99748.97;;;22.73;31.11
29879;BME280;16752;53.364;-1.488;2022-10-16T09:34:51;99759.47;;;22.25;31.14
29879;BME280;16752;53.364;-1.488;2022-10-16T09:37:20;99765.19;;;22.22;31.43
29879;BME280;16752;53.364;-1.488;2022-10-16T09:39:52;99759.19;;;22.63;31.61
29879;BME280;16752;53.364;-1.488;2022-10-16T09:42:21;99761.69;;;22.71;31.84
29879;BME280;16752;53.364;-1.488;2022-10-16T09:44:50;99776.19;;;21.98;32.13
29879;BME280;16752;53.364;-1.488;2022-10-16T09:47:26;99765.88;;;22.31;31.95
29879;BME280;16752;53.364;-1.488;2022-10-16T09:50:03;99776.53;;;22.31;31.33
29879;BME280;16752;53.364;-1.488;2022-10-16T09:52:39;99783.22;;;22.41;31.06
29879;BME280;16752;53.364;-1.488;2022-10-16T09:55:16;99779.69;;;22.34;30.99
29879;BME280;16752;53.364;-1.488;2022-10-16T09:57:56;99788.78;;;22.68;30.34
29879;BME280;16752;53.364;-1.488;2022-10-16T10:00:24;99796.31;;;22.00;31.01
29879;BME280;16752;53.364;-1.488;2022-10-16T10:02:49;99807.53;;;22.74;29.90
29879;BME280;16752;53.364;-1.488;2022-10-16T10:05:18;99797.41;;;22.42;30.49
29879;BME280;16752;53.364;-1.488;2022-10-16T10:07:54;99811.50;;;22.36;31.54
29879;BME280;16752;53.364;-1.488;2022-10-16T10:10:23;99810.44;;;23.01;29.64
29879;BME280;16752;53.364;-1.488;2022-10-16T10:12:51;99808.78;;;23.28;29.93
29879;BME280;16752;53.364;-1.488;2022-10-16T10:15:17;99821.06;;;22.94;28.72
29879;BME280;16752;53.364;-1.488;2022-10-16T10:17:56;99819.38;;;23.14;29.67
29879;BME280;16752;53.364;-1.488;2022-10-16T10:20:28;99819.13;;;23.72;27.30
29879;BME280;16752;53.364;-1.488;2022-10-16T10:22:54;99827.19;;;22.67;29.17
29879;BME280;16752;53.364;-1.488;2022-10-16T10:31:20;99805.78;;;23.09;28.46
29879;BME280;16752;53.364;-1.488;2022-10-16T10:36:50;99814.06;;;22.08;29.99
29879;BME280;16752;53.364;-1.488;2022-10-16T10:39:27;99822.84;;;22.23;29.18
29879;BME280;16752;53.364;-1.488;2022-10-16T10:56:07;99837.53;;;22.76;27.78
29879;BME280;16752;53.364;-1.488;2022-10-16T11:01:32;99858.31;;;23.58;26.98
29879;BME280;16752;53.364;-1.488;2022-10-16T11:09:09;99870.22;;;23.21;27.29
29879;BME280;16752;53.364;-1.488;2022-10-16T11:11:38;99871.34;;;23.40;26.28
29879;BME280;16752;53.364;-1.488;2022-10-16T11:14:08;99882.19;;;23.32;26.05
29879;BME280;16752;53.364;-1.488;2022-10-16T11:17:01;99880.66;;;22.95;26.90
29879;BME280;16752;53.364;-1.488;2022-10-16T11:19:42;99871.47;;;23.25;27.66
29879;BME280;16752;53.364;-1.488;2022-10-16T11:25:35;99852.25;;;22.87;26.54
29879;BME280;16752;53.364;-1.488;2022-10-16T11:28:09;99855.16;;;23.48;26.88
29879;BME280;16752;53.364;-1.488;2022-10-16T11:34:06;99848.50;;;24.13;26.41
29879;BME280;16752;53.364;-1.488;2022-10-16T11:36:48;99853.91;;;23.16;26.73
29879;BME280;16752;53.364;-1.488;2022-10-16T11:39:20;99855.84;;;23.98;26.64
29879;BME280;16752;53.364;-1.488;2022-10-16T11:42:03;99848.97;;;23.75;25.87
29879;BME280;16752;53.364;-1.488;2022-10-16T11:49:33;99857.31;;;23.59;24.57
29879;BME280;16752;53.364;-1.488;2022-10-16T11:52:06;99853.28;;;22.86;25.54
29879;BME280;16752;53.364;-1.488;2022-10-16T11:54:35;99859.06;;;23.17;25.31
29879;BME280;16752;53.364;-1.488;2022-10-16T11:57:09;99846.75;;;23.51;24.65
29879;BME280;16752;53.364;-1.488;2022-10-16T12:02:43;99864.09;;;24.90;23.07
29879;BME280;16752;53.364;-1.488;2022-10-16T12:08:12;99854.59;;;25.34;21.59
29879;BME280;16752;53.364;-1.488;2022-10-16T12:10:44;99855.63;;;25.46;22.16
29879;BME280;16752;53.364;-1.488;2022-10-16T12:16:04;99849.88;;;24.90;23.12
29879;BME280;16752;53.364;-1.488;2022-10-16T12:18:30;99852.34;;;25.44;21.91
29879;BME280;16752;53.364;-1.488;2022-10-16T12:20:56;99855.53;;;25.86;21.69
29879;BME280;16752;53.364;-1.488;2022-10-16T12:23:24;99857.00;;;26.27;21.44
29879;BME280;16752;53.364;-1.488;2022-10-16T12:25:54;99855.16;;;26.20;21.23
29879;BME280;16752;53.364;-1.488;2022-10-16T12:28:21;99859.88;;;25.87;21.43
29879;BME280;16752;53.364;-1.488;2022-10-16T12:30:53;99868.41;;;25.44;22.19
29879;BME280;16752;53.364;-1.488;2022-10-16T12:35:54;99874.38;;;24.93;22.12
29879;BME280;16752;53.364;-1.488;2022-10-16T12:40:46;99888.63;;;23.65;23.59
29879;BME280;16752;53.364;-1.488;2022-10-16T12:43:26;99877.84;;;24.48;22.54
29879;BME280;16752;53.364;-1.488;2022-10-16T12:46:00;99880.50;;;24.34;23.83
29879;BME280;16752;53.364;-1.488;2022-10-16T12:48:26;99875.03;;;24.76;23.70
29879;BME280;16752;53.364;-1.488;2022-10-16T12:50:54;99883.72;;;24.23;23.69
29879;BME280;16752;53.364;-1.488;2022-10-16T12:53:23;99887.28;;;24.30;23.45
29879;BME280;16752;53.364;-1.488;2022-10-16T12:56:03;99899.78;;;24.23;23.64
29879;BME280;16752;53.364;-1.488;2022-10-16T13:01:27;99901.22;;;24.26;23.39
29879;BME280;16752;53.364;-1.488;2022-10-16T13:11:58;99902.47;;;25.24;23.82
29879;BME280;16752;53.364;-1.488;2022-10-16T13:19:44;99905.16;;;25.04;23.10
29879;BME280;16752;53.364;-1.488;2022-10-16T13:22:14;99900.56;;;25.84;22.25
29879;BME280;16752;53.364;-1.488;2022-10-16T13:30:28;99889.03;;;25.37;22.72
29879;BME280;16752;53.364;-1.488;2022-10-16T13:35:46;99895.19;;;24.65;22.82
29879;BME280;16752;53.364;-1.488;2022-10-16T13:38:22;99894.78;;;24.68;23.03
29879;BME280;16752;53.364;-1.488;2022-10-16T13:40:52;99888.22;;;24.77;23.83
29879;BME280;16752;53.364;-1.488;2022-10-16T13:43:40;99890.66;;;24.52;23.39
29879;BME280;16752;53.364;-1.488;2022-10-16T13:46:22;99895.16;;;24.04;24.69
29879;BME280;16752;53.364;-1.488;2022-10-16T13:51:26;99885.09;;;24.06;24.62
29879;BME280;16752;53.364;-1.488;2022-10-16T13:53:52;99881.38;;;24.00;24.63
29879;BME280;16752;53.364;-1.488;2022-10-16T13:56:21;99882.66;;;24.11;24.44
29879;BME280;16752;53.364;-1.488;2022-10-16T13:58:57;99890.59;;;24.32;25.45
29879;BME280;16752;53.364;-1.488;2022-10-16T14:01:23;99890.66;;;24.72;23.69
29879;BME280;16752;53.364;-1.488;2022-10-16T14:03:50;99899.16;;;25.48;23.60
29879;BME280;16752;53.364;-1.488;2022-10-16T14:06:17;99898.47;;;25.86;22.87
29879;BME280;16752;53.364;-1.488;2022-10-16T14:08:54;99906.53;;;25.79;23.51
29879;BME280;16752;53.364;-1.488;2022-10-16T14:11:24;99901.31;;;26.04;22.91
29879;BME280;16752;53.364;-1.488;2022-10-16T14:13:50;99901.94;;;26.51;22.54
29879;BME280;16752;53.364;-1.488;2022-10-16T14:16:18;99897.13;;;26.91;21.31
29879;BME280;16752;53.364;-1.488;2022-10-16T14:18:45;99887.59;;;26.26;21.79
29879;BME280;16752;53.364;-1.488;2022-10-16T14:21:12;99890.81;;;26.41;21.84
29879;BME280;16752;53.364;-1.488;2022-10-16T14:23:45;99894.00;;;25.47;21.98
29879;BME280;16752;53.364;-1.488;2022-10-16T14:26:14;99900.22;;;25.21;22.94
29879;BME280;16752;53.364;-1.488;2022-10-16T14:28:42;99901.72;;;23.60;25.27
29879;BME280;16752;53.364;-1.488;2022-10-16T14:33:46;99905.00;;;24.31;25.64
29879;BME280;16752;53.364;-1.488;2022-10-16T14:36:15;99907.50;;;24.40;24.03
29879;BME280;16752;53.364;-1.488;2022-10-16T14:38:42;99908.78;;;24.63;24.16
29879;BME280;16752;53.364;-1.488;2022-10-16T14:41:13;99903.59;;;24.01;24.58
29879;BME280;16752;53.364;-1.488;2022-10-16T14:43:39;99905.03;;;24.45;24.65
29879;BME280;16752;53.364;-1.488;2022-10-16T14:46:15;99908.53;;;24.38;24.83
29879;BME280;16752;53.364;-1.488;2022-10-16T14:48:42;99918.59;;;24.36;24.99
29879;BME280;16752;53.364;-1.488;2022-10-16T14:51:14;99915.31;;;24.41;25.23
29879;BME280;16752;53.364;-1.488;2022-10-16T14:53:40;99907.91;;;24.36;26.13
29879;BME280;16752;53.364;-1.488;2022-10-16T14:56:16;99917.66;;;24.10;25.80
29879;BME280;16752;53.364;-1.488;2022-10-16T15:07:37;99924.19;;;24.00;24.66
29879;BME280;16752;53.364;-1.488;2022-10-16T15:10:03;99925.19;;;23.37;24.70
29879;BME280;16752;53.364;-1.488;2022-10-16T15:12:28;99922.59;;;23.71;24.60
29879;BME280;16752;53.364;-1.488;2022-10-16T15:15:05;99921.50;;;23.10;24.92
29879;BME280;16752;53.364;-1.488;2022-10-16T15:20:51;99894.44;;;23.20;25.15
29879;BME280;16752;53.364;-1.488;2022-10-16T15:29:21;99886.69;;;22.61;26.79
29879;BME280;16752;53.364;-1.488;2022-10-16T15:31:53;99879.59;;;22.89;26.71
29879;BME280;16752;53.364;-1.488;2022-10-16T15:34:19;99879.19;;;22.49;27.57
29879;BME280;16752;53.364;-1.488;2022-10-16T15:36:44;99875.81;;;22.41;27.65
29879;BME280;16752;53.364;-1.488;2022-10-16T15:39:14;99879.53;;;23.04;26.91
29879;BME280;16752;53.364;-1.488;2022-10-16T15:41:40;99876.94;;;22.89;27.48
29879;BME280;16752;53.364;-1.488;2022-10-16T15:44:06;99882.06;;;22.91;27.64
29879;BME280;16752;53.364;-1.488;2022-10-16T15:46:32;99881.00;;;22.85;27.21
29879;BME280;16752;53.364;-1.488;2022-10-16T15:48:59;99879.84;;;22.15;28.44
29879;BME280;16752;53.364;-1.488;2022-10-16T15:51:25;99891.19;;;22.39;27.75
29879;BME280;16752;53.364;-1.488;2022-10-16T15:53:54;99882.91;;;22.34;27.50
29879;BME280;16752;53.364;-1.488;2022-10-16T15:56:19;99885.03;;;22.60;27.54